Time;durP1;ratioP1;P1;durP2;ratioP2;P2;SDS_P1;SDS_P2;PMS_P1;PMS_P2;Temp;Humidity;BMP_temperature;BMP_pressure;BME280_temperature;BME280_humidity;BME280_pressure;Samples;Min_cycle;Max_cycle;Signal;HPM_P1;HPM_P2
2021/01/29 00:01:52;;;;;;;6.93;1.33;;;12.50;99.90;;;;;;4972669;28;20209;-84
2021/01/29 00:04:19;;;;;;;7.70;1.50;;;12.40;99.90;;;;;;4972619;28;20201;-84
2021/01/29 00:06:45;;;;;;;9.33;1.70;;;12.40;99.90;;;;;;4972333;28;20206;-84
2021/01/29 00:09:12;;;;;;;6.80;1.57;;;12.30;99.90;;;;;;4972809;28;20199;-84
2021/01/29 00:11:38;;;;;;;7.93;1.50;;;12.30;99.90;;;;;;4972705;28;20206;-84
2021/01/29 00:14:04;;;;;;;9.90;1.60;;;12.40;99.90;;;;;;4972678;28;20194;-84
2021/01/29 00:16:31;;;;;;;6.83;1.60;;;12.40;99.90;;;;;;4972514;28;20257;-84
2021/01/29 00:18:58;;;;;;;9.00;1.43;;;12.50;99.90;;;;;;4993557;28;20238;-83
2021/01/29 00:21:25;;;;;;;11.17;1.60;;;12.40;99.90;;;;;;5068798;28;20195;-83
2021/01/29 00:23:51;;;;;;;10.80;1.93;;;12.50;99.90;;;;;;4972175;28;20675;-84
2021/01/29 00:26:18;;;;;;;8.67;1.70;;;12.50;99.90;;;;;;4971334;28;20656;-83
2021/01/29 00:28:44;;;;;;;8.47;2.07;;;12.50;99.90;;;;;;4972321;28;20206;-83
2021/01/29 00:31:11;;;;;;;6.73;1.93;;;12.40;99.90;;;;;;4972484;28;20203;-84
2021/01/29 00:33:38;;;;;;;7.20;1.77;;;12.40;99.90;;;;;;4971792;28;20223;-84
2021/01/29 00:36:06;;;;;;;10.07;1.90;;;12.30;99.90;;;;;;4972224;28;20235;-84
2021/01/29 00:38:32;;;;;;;7.00;1.77;;;12.20;99.90;;;;;;4972703;28;20206;-84
2021/01/29 00:40:59;;;;;;;10.73;2.07;;;12.20;99.90;;;;;;4971939;28;20569;-83
2021/01/29 00:43:25;;;;;;;11.43;2.37;;;12.10;99.90;;;;;;4972365;28;20198;-84
2021/01/29 00:45:52;;;;;;;8.73;2.30;;;12.10;99.90;;;;;;4972087;28;20638;-83
2021/01/29 00:48:18;;;;;;;13.33;2.20;;;12.00;99.90;;;;;;4972044;28;20199;-84
2021/01/29 00:50:45;;;;;;;10.90;2.63;;;12.00;99.90;;;;;;4972526;28;20206;-84
2021/01/29 00:53:12;;;;;;;13.90;2.40;;;11.90;99.90;;;;;;4972225;28;20210;-84
2021/01/29 00:55:39;;;;;;;10.63;2.33;;;11.90;99.90;;;;;;4971565;28;20223;-84
2021/01/29 00:58:05;;;;;;;14.57;2.20;;;11.80;99.90;;;;;;4971338;28;20198;-83
2021/01/29 01:00:32;;;;;;;12.70;2.43;;;11.90;99.90;;;;;;4971792;28;20234;-84
2021/01/29 01:02:58;;;;;;;13.90;2.40;;;11.80;99.90;;;;;;4970815;28;20271;-84
2021/01/29 01:05:26;;;;;;;13.93;2.80;;;11.80;99.90;;;;;;4971500;28;20239;-84
2021/01/29 01:07:53;;;;;;;14.10;2.40;;;11.70;99.90;;;;;;4972025;28;20207;-84
2021/01/29 01:10:21;;;;;;;12.77;2.10;;;11.70;99.90;;;;;;4971298;28;20199;-84
2021/01/29 01:12:48;;;;;;;10.97;2.27;;;11.70;99.90;;;;;;4971758;28;20218;-84
2021/01/29 01:15:18;;;;;;;13.60;2.47;;;11.70;99.90;;;;;;4971444;28;20219;-83
2021/01/29 01:17:45;;;;;;;12.37;2.40;;;11.70;99.90;;;;;;4971283;28;20227;-84
2021/01/29 01:20:17;;;;;;;9.87;2.27;;;11.70;99.90;;;;;;5045287;28;20574;-83
2021/01/29 01:22:44;;;;;;;9.90;1.80;;;11.70;99.90;;;;;;4993589;28;20252;-84
2021/01/29 01:25:12;;;;;;;12.30;2.53;;;11.80;99.90;;;;;;4971303;28;20218;-83
2021/01/29 01:27:40;;;;;;;12.90;2.20;;;11.80;99.90;;;;;;4971480;28;20210;-84
2021/01/29 01:30:09;;;;;;;15.90;2.40;;;11.70;99.90;;;;;;4971521;28;20203;-83
2021/01/29 01:32:35;;;;;;;13.03;2.77;;;11.70;99.90;;;;;;4971138;28;20592;-84
2021/01/29 01:35:02;;;;;;;17.40;2.47;;;11.70;99.90;;;;;;4971802;28;20222;-84
2021/01/29 01:37:28;;;;;;;18.13;2.53;;;11.70;99.90;;;;;;4971201;28;20198;-84
2021/01/29 01:39:55;;;;;;;13.97;2.97;;;11.80;99.90;;;;;;4971574;28;20207;-84
2021/01/29 01:42:21;;;;;;;11.10;2.63;;;11.80;99.90;;;;;;4970773;28;20256;-84
2021/01/29 01:44:49;;;;;;;13.37;2.47;;;11.80;99.90;;;;;;4971568;28;20281;-83
2021/01/29 01:47:23;;;;;;;14.67;2.87;;;11.80;99.90;;;;;;4970933;28;20202;-84
2021/01/29 01:49:52;;;;;;;14.63;2.37;;;11.70;99.90;;;;;;4971475;28;20214;-84
2021/01/29 01:52:24;;;;;;;17.20;2.63;;;11.60;99.90;;;;;;4970878;28;20195;-84
2021/01/29 01:54:54;;;;;;;14.93;2.47;;;11.70;99.90;;;;;;4971344;28;20257;-84
2021/01/29 01:57:24;;;;;;;16.60;2.60;;;11.70;99.90;;;;;;4971554;28;20253;-83
2021/01/29 01:59:56;;;;;;;15.17;2.97;;;11.70;99.90;;;;;;4971454;28;20202;-83
2021/01/29 02:02:25;;;;;;;16.97;2.60;;;11.70;99.90;;;;;;4970754;28;20206;-83
2021/01/29 02:04:52;;;;;;;18.27;3.10;;;11.70;99.90;;;;;;4971265;28;20629;-83
2021/01/29 02:07:32;;;;;;;12.80;2.70;;;11.60;99.90;;;;;;4970834;28;20195;-83
2021/01/29 02:10:00;;;;;;;16.83;2.90;;;11.70;99.90;;;;;;4971642;28;20215;-83
2021/01/29 02:12:27;;;;;;;16.73;2.40;;;11.70;99.90;;;;;;4971077;28;20233;-83
2021/01/29 02:14:55;;;;;;;15.13;2.50;;;11.70;99.90;;;;;;4970571;28;20230;-83
2021/01/29 02:17:37;;;;;;;13.67;2.60;;;11.70;99.90;;;;;;4970589;28;20242;-82
2021/01/29 02:20:35;;;;;;;12.83;2.60;;;11.70;99.90;;;;;;4970890;28;20210;-83
2021/01/29 02:23:23;;;;;;;16.47;3.00;;;11.70;99.90;;;;;;4970821;28;20203;-83
2021/01/29 02:26:26;;;;;;;16.23;2.30;;;11.70;99.90;;;;;;4970405;28;20691;-83
2021/01/29 02:29:19;;;;;;;15.93;3.07;;;11.60;99.90;;;;;;4970646;28;20664;-83
2021/01/29 02:32:20;;;;;;;19.57;3.20;;;11.60;99.90;;;;;;4970339;28;20198;-83
2021/01/29 02:35:13;;;;;;;18.60;3.03;;;11.60;99.90;;;;;;4970580;28;20221;-84
2021/01/29 02:38:08;;;;;;;16.40;2.90;;;11.60;99.90;;;;;;4970646;28;20271;-83
2021/01/29 02:40:40;;;;;;;19.70;3.10;;;11.60;99.90;;;;;;4957938;28;20222;-83
2021/01/29 02:43:34;;;;;;;16.67;3.17;;;11.50;99.90;;;;;;4970683;28;20201;-83
2021/01/29 02:46:08;;;;;;;16.10;2.90;;;11.30;99.90;;;;;;4970427;28;20203;-84
2021/01/29 02:48:45;;;;;;;17.73;3.40;;;11.20;99.90;;;;;;4954386;28;20206;-83
2021/01/29 02:51:19;;;;;;;16.43;2.50;;;11.10;99.90;;;;;;4973535;28;20206;-83
2021/01/29 02:53:54;;;;;;;18.37;2.77;;;11.00;99.90;;;;;;4973749;28;20585;-83
2021/01/29 02:56:28;;;;;;;17.43;3.00;;;10.90;99.90;;;;;;4973716;28;20229;-83
2021/01/29 02:59:02;;;;;;;17.50;3.00;;;10.80;99.90;;;;;;4973499;28;20749;-83
2021/01/29 03:01:35;;;;;;;18.83;3.40;;;10.90;99.90;;;;;;4973560;28;20226;-82
2021/01/29 03:04:07;;;;;;;22.37;3.07;;;11.00;99.90;;;;;;4973864;28;20206;-83
2021/01/29 03:06:39;;;;;;;15.30;3.07;;;11.00;99.90;;;;;;4973813;28;20220;-83
2021/01/29 03:09:13;;;;;;;17.00;3.37;;;11.00;99.90;;;;;;4974222;28;20198;-83
2021/01/29 03:11:47;;;;;;;16.87;3.50;;;11.00;99.90;;;;;;4973864;28;20214;-83
2021/01/29 03:14:18;;;;;;;23.03;3.60;;;10.90;99.90;;;;;;4973380;28;20201;-83
2021/01/29 03:16:50;;;;;;;26.63;3.87;;;10.80;99.90;;;;;;4973564;28;20653;-83
2021/01/29 03:19:26;;;;;;;20.43;3.37;;;10.90;99.90;;;;;;4973924;28;20217;-83
2021/01/29 03:21:58;;;;;;;23.07;3.70;;;11.00;99.90;;;;;;4973251;28;20678;-83
2021/01/29 03:24:29;;;;;;;21.27;3.50;;;11.00;99.90;;;;;;4954542;29;20264;-83
2021/01/29 03:27:00;;;;;;;21.30;3.43;;;11.00;99.90;;;;;;4968325;28;20206;-83
2021/01/29 03:29:37;;;;;;;17.60;3.30;;;11.00;99.90;;;;;;4973382;28;20237;-83
2021/01/29 03:32:06;;;;;;;25.83;3.53;;;11.00;99.90;;;;;;4973056;28;20288;-83
2021/01/29 03:34:38;;;;;;;23.83;4.27;;;10.90;99.90;;;;;;4973645;28;20259;-83
2021/01/29 03:37:10;;;;;;;23.20;3.70;;;10.80;99.90;;;;;;4973437;28;20619;-83
2021/01/29 03:39:38;;;;;;;18.20;3.57;;;10.70;99.90;;;;;;4973356;28;20232;-82
2021/01/29 03:42:17;;;;;;;18.20;3.27;;;10.60;99.90;;;;;;4973039;28;20221;-83
2021/01/29 03:44:49;;;;;;;27.27;4.00;;;10.50;99.90;;;;;;4973514;28;20206;-83
2021/01/29 03:47:25;;;;;;;21.30;3.30;;;10.50;99.90;;;;;;4973219;28;20214;-83
2021/01/29 03:50:07;;;;;;;30.57;4.40;;;10.40;99.90;;;;;;4973098;28;20252;-82
2021/01/29 03:52:43;;;;;;;22.97;3.30;;;10.40;99.90;;;;;;4973031;28;20207;-83
2021/01/29 03:55:19;;;;;;;23.90;3.67;;;10.30;99.90;;;;;;4972888;28;20225;-83
2021/01/29 03:57:56;;;;;;;23.10;3.83;;;10.30;99.90;;;;;;4973007;28;20201;-83
2021/01/29 04:00:32;;;;;;;19.60;3.37;;;10.20;99.90;;;;;;4953787;28;20585;-83
2021/01/29 04:03:06;;;;;;;29.67;4.00;;;10.20;99.90;;;;;;4953463;29;20206;-82
2021/01/29 04:05:39;;;;;;;22.07;3.73;;;10.20;99.90;;;;;;4954038;28;20669;-82
2021/01/29 04:08:10;;;;;;;21.37;3.80;;;10.10;99.90;;;;;;4953464;28;20242;-82
2021/01/29 04:10:39;;;;;;;26.90;3.90;;;10.10;99.90;;;;;;4953532;29;20257;-82
2021/01/29 04:13:13;;;;;;;23.30;4.20;;;10.10;99.90;;;;;;4953565;28;20209;-82
2021/01/29 04:15:44;;;;;;;18.23;3.50;;;10.20;99.90;;;;;;4959206;28;20226;-83
2021/01/29 04:18:17;;;;;;;21.00;3.83;;;10.30;99.90;;;;;;4972075;28;20342;-83
2021/01/29 04:20:47;;;;;;;26.47;3.90;;;10.30;99.90;;;;;;5059722;28;20302;-83
2021/01/29 04:23:19;;;;;;;22.97;4.17;;;10.40;99.90;;;;;;4972403;28;20205;-82
2021/01/29 04:25:52;;;;;;;26.87;3.77;;;10.40;99.90;;;;;;4971886;28;20195;-83
2021/01/29 04:28:20;;;;;;;28.60;4.10;;;10.40;99.90;;;;;;4972588;28;20194;-83
2021/01/29 04:30:51;;;;;;;23.33;4.03;;;10.40;99.90;;;;;;4972828;28;20282;-83
2021/01/29 04:33:23;;;;;;;22.20;3.60;;;10.50;99.90;;;;;;4972208;28;20230;-83
2021/01/29 04:35:52;;;;;;;24.10;4.17;;;10.40;99.90;;;;;;4972837;28;20234;-83
2021/01/29 04:38:24;;;;;;;25.27;3.87;;;10.40;99.90;;;;;;4972115;28;20252;-83
2021/01/29 04:40:58;;;;;;;29.13;4.37;;;10.40;99.90;;;;;;4972326;28;20558;-83
2021/01/29 04:43:44;;;;;;;26.87;4.20;;;10.40;99.90;;;;;;4972482;28;20233;-83
2021/01/29 04:46:51;;;;;;;22.13;4.53;;;10.30;99.90;;;;;;4972127;28;20203;-82
2021/01/29 04:49:42;;;;;;;26.93;4.27;;;10.30;99.90;;;;;;4972201;28;20198;-82
2021/01/29 04:52:37;;;;;;;25.63;4.10;;;10.20;99.90;;;;;;4971923;28;20202;-83
2021/01/29 04:55:39;;;;;;;30.93;4.40;;;10.20;99.90;;;;;;4971992;28;20230;-82
2021/01/29 04:58:10;;;;;;;27.93;4.20;;;10.30;99.90;;;;;;4969122;28;20202;-82
2021/01/29 05:01:21;;;;;;;25.57;4.10;;;10.30;99.90;;;;;;4972193;28;20660;-83
2021/01/29 05:04:24;;;;;;;25.13;4.27;;;10.40;99.90;;;;;;4965746;28;20210;-82
2021/01/29 05:07:03;;;;;;;22.17;3.93;;;10.50;99.90;;;;;;4971958;28;20665;-82
2021/01/29 05:09:48;;;;;;;24.77;4.33;;;10.50;99.90;;;;;;4971839;28;20202;-83
2021/01/29 05:12:54;;;;;;;25.33;5.67;;;10.50;99.90;;;;;;4971258;28;20202;-83
2021/01/29 05:15:54;;;;;;;29.37;4.47;;;10.50;99.90;;;;;;4912033;28;20222;-83
2021/01/29 05:18:45;;;;;;;27.37;5.33;;;10.50;99.90;;;;;;4911814;28;20289;-82
2021/01/29 05:21:40;;;;;;;28.97;5.17;;;10.60;99.90;;;;;;4912215;28;20226;-82
2021/01/29 05:24:40;;;;;;;26.13;4.90;;;10.60;99.90;;;;;;4913291;28;20208;-83
2021/01/29 05:27:31;;;;;;;27.30;4.93;;;10.60;99.90;;;;;;4856179;29;20251;-83
2021/01/29 05:30:14;;;;;;;25.50;4.20;;;10.60;99.90;;;;;;4855948;29;20238;-82
2021/01/29 05:33:09;;;;;;;28.03;5.23;;;10.60;99.90;;;;;;4855744;29;20230;-83
2021/01/29 05:35:51;;;;;;;22.87;4.37;;;10.60;99.90;;;;;;4855244;29;20257;-82
2021/01/29 05:38:46;;;;;;;26.73;4.43;;;10.50;99.90;;;;;;4855583;29;20213;-82
2021/01/29 05:41:56;;;;;;;26.03;4.37;;;10.50;99.90;;;;;;4861261;29;20244;-83
2021/01/29 05:44:51;;;;;;;24.90;4.33;;;10.50;99.90;;;;;;4855878;29;20244;-82
2021/01/29 05:47:41;;;;;;;27.80;4.83;;;10.40;99.90;;;;;;4855923;29;20707;-83
2021/01/29 05:50:20;;;;;;;22.30;3.90;;;10.30;99.90;;;;;;4919602;29;20198;-82
2021/01/29 05:53:05;;;;;;;24.83;4.17;;;10.30;99.90;;;;;;4929769;28;20196;-82
2021/01/29 05:55:43;;;;;;;26.50;5.00;;;10.40;99.90;;;;;;4930105;28;20607;-82
2021/01/29 05:58:39;;;;;;;28.93;4.70;;;10.30;99.90;;;;;;4930254;29;20783;-83
2021/01/29 06:01:47;;;;;;;27.37;4.40;;;10.30;99.90;;;;;;4932010;28;20237;-83
2021/01/29 06:04:28;;;;;;;28.17;5.00;;;10.30;99.90;;;;;;4951879;28;20648;-81
2021/01/29 06:07:19;;;;;;;29.43;3.83;;;10.20;99.90;;;;;;4951536;28;20667;-84
2021/01/29 06:10:27;;;;;;;27.20;4.70;;;10.10;99.90;;;;;;4949128;29;20645;-87
2021/01/29 06:13:26;;;;;;;26.97;4.13;;;10.10;99.90;;;;;;4960577;28;20206;-86
2021/01/29 06:16:17;;;;;;;22.10;4.13;;;10.20;99.90;;;;;;4970802;28;20226;-87
2021/01/29 06:19:23;;;;;;;30.57;4.70;;;10.30;99.90;;;;;;4968399;28;20726;-87
2021/01/29 06:22:16;;;;;;;25.97;5.30;;;10.30;99.90;;;;;;4911023;29;20211;-83
2021/01/29 06:25:08;;;;;;;27.77;4.63;;;10.30;99.90;;;;;;4928528;29;20731;-86
2021/01/29 06:28:12;;;;;;;28.30;4.70;;;10.30;99.90;;;;;;4930594;28;20203;-86
2021/01/29 06:30:56;;;;;;;30.30;3.97;;;10.30;99.90;;;;;;4973541;28;20196;-85
2021/01/29 06:33:58;;;;;;;22.23;4.43;;;10.30;99.90;;;;;;4930208;28;20227;-85
2021/01/29 06:36:39;;;;;;;24.13;4.07;;;10.30;99.90;;;;;;4912097;29;20230;-84
2021/01/29 06:39:16;;;;;;;31.47;4.57;;;10.40;99.90;;;;;;4930094;29;20199;-86
2021/01/29 06:42:22;;;;;;;31.07;4.63;;;10.40;99.90;;;;;;4930269;28;20212;-84
2021/01/29 06:45:12;;;;;;;22.43;4.40;;;10.40;99.90;;;;;;4929451;28;20216;-84
2021/01/29 06:47:53;;;;;;;25.80;4.07;;;10.40;99.90;;;;;;4930401;28;20204;-86
2021/01/29 06:50:31;;;;;;;24.30;4.30;;;10.40;99.90;;;;;;4930453;28;20721;-86
2021/01/29 06:53:39;;;;;;;22.33;4.67;;;10.40;99.90;;;;;;4957124;28;20204;-86
2021/01/29 06:56:48;;;;;;;26.17;4.17;;;10.40;99.90;;;;;;4971552;28;20226;-93
2021/01/29 06:59:39;;;;;;;30.13;4.50;;;10.50;99.90;;;;;;4904027;28;20266;-92
2021/01/29 07:02:46;;;;;;;21.63;3.80;;;10.50;99.90;;;;;;4898823;28;20270;-93
2021/01/29 07:05:29;;;;;;;22.93;3.70;;;10.60;99.90;;;;;;4910843;28;20205;-92
2021/01/29 07:08:16;;;;;;;25.20;4.40;;;10.60;99.90;;;;;;4893293;28;20201;-93
2021/01/29 07:11:19;;;;;;;26.03;3.80;;;10.60;99.90;;;;;;4887008;28;20308;-91
2021/01/29 07:14:00;;;;;;;26.90;4.40;;;10.70;99.90;;;;;;4895511;28;20205;-92
2021/01/29 07:16:46;;;;;;;25.10;3.67;;;10.60;99.90;;;;;;4894544;28;20223;-92
2021/01/29 07:19:45;;;;;;;23.03;4.40;;;10.60;99.90;;;;;;4891840;28;20252;-92
2021/01/29 07:22:39;;;;;;;26.10;4.37;;;10.60;99.90;;;;;;4878809;28;20369;-93
2021/01/29 07:25:11;;;;;;;26.50;4.27;;;10.60;99.90;;;;;;4885915;28;20211;-94
2021/01/29 07:27:45;;;;;;;23.13;4.20;;;10.60;99.90;;;;;;4884018;28;20766;-92
2021/01/29 07:30:45;;;;;;;23.60;4.13;;;10.50;99.90;;;;;;4861320;29;20269;-93
2021/01/29 07:33:22;;;;;;;24.67;4.17;;;10.50;99.90;;;;;;4918193;28;20223;-89
2021/01/29 07:36:08;;;;;;;28.53;4.10;;;10.50;99.90;;;;;;4955119;28;20281;-92
2021/01/29 07:39:08;;;;;;;29.67;4.57;;;10.50;99.90;;;;;;4960756;28;20254;-93
2021/01/29 07:41:46;;;;;;;29.80;4.83;;;10.40;99.90;;;;;;4977787;28;20717;-93
2021/01/29 07:44:29;;;;;;;23.83;5.20;;;10.30;99.90;;;;;;4977818;28;20210;-94
2021/01/29 07:47:08;;;;;;;23.47;3.63;;;10.20;99.90;;;;;;4977268;28;20217;-94
2021/01/29 07:49:58;;;;;;;25.30;3.83;;;10.10;99.90;;;;;;4977312;28;20254;-94
2021/01/29 07:52:36;;;;;;;29.47;4.07;;;10.00;99.90;;;;;;4977820;28;20644;-94
2021/01/29 07:55:20;;;;;;;30.90;4.80;;;9.90;99.90;;;;;;4977309;28;20218;-95
2021/01/29 07:58:20;;;;;;;28.67;4.60;;;9.90;99.90;;;;;;4977469;28;20200;-93
2021/01/29 08:01:10;;;;;;;28.13;4.43;;;9.90;99.90;;;;;;4976083;28;20214;-93
2021/01/29 08:03:58;;;;;;;26.17;3.90;;;10.10;99.90;;;;;;4976821;28;20216;-95
2021/01/29 08:06:28;;;;;;;26.27;4.33;;;10.20;99.90;;;;;;4976694;28;20236;-93
2021/01/29 08:09:02;;;;;;;23.60;4.57;;;10.30;99.90;;;;;;4977043;28;20208;-92
2021/01/29 08:11:30;;;;;;;22.60;4.03;;;10.20;99.90;;;;;;4976166;28;20226;-93
2021/01/29 08:14:19;;;;;;;28.93;4.70;;;10.20;99.90;;;;;;4976342;28;20206;-93
2021/01/29 08:17:09;;;;;;;20.93;3.77;;;10.10;99.90;;;;;;4976793;28;20311;-94
2021/01/29 08:19:53;;;;;;;19.00;4.10;;;10.20;99.90;;;;;;4976252;28;20203;-95
2021/01/29 08:22:34;;;;;;;22.80;3.83;;;10.30;99.90;;;;;;4976850;28;20204;-94
2021/01/29 08:25:32;;;;;;;25.03;4.27;;;10.40;99.90;;;;;;4977140;28;20205;-93
2021/01/29 08:28:35;;;;;;;22.77;4.17;;;10.40;99.90;;;;;;4971312;28;20198;-93
2021/01/29 08:31:27;;;;;;;21.03;3.70;;;10.60;99.90;;;;;;4967337;28;20202;-93
2021/01/29 08:34:22;;;;;;;16.83;3.90;;;10.70;99.90;;;;;;4975939;28;20288;-94
2021/01/29 08:37:12;;;;;;;22.47;4.37;;;10.80;99.90;;;;;;4976538;28;20307;-93
2021/01/29 08:39:45;;;;;;;25.57;3.53;;;10.80;99.90;;;;;;4967532;28;20214;-83
2021/01/29 08:42:31;;;;;;;27.17;4.23;;;10.80;99.90;;;;;;4974180;28;20255;-93
2021/01/29 08:45:31;;;;;;;22.43;4.03;;;10.80;99.90;;;;;;4977003;28;20718;-95
2021/01/29 08:48:13;;;;;;;22.70;4.23;;;10.80;99.90;;;;;;4963880;28;20577;-90
2021/01/29 08:50:53;;;;;;;21.03;3.33;;;10.80;99.90;;;;;;4975226;28;20271;-92
2021/01/29 08:53:50;;;;;;;25.03;4.07;;;10.80;99.90;;;;;;4966556;28;20703;-92
2021/01/29 08:56:25;;;;;;;25.40;3.83;;;10.80;99.90;;;;;;4973835;28;20230;-91
2021/01/29 08:58:59;;;;;;;27.83;4.33;;;10.80;99.90;;;;;;4976921;28;20699;-91
2021/01/29 09:01:32;;;;;;;21.27;3.60;;;10.80;99.90;;;;;;4974009;28;20205;-92
2021/01/29 09:04:03;;;;;;;23.30;4.10;;;10.80;99.90;;;;;;4973956;28;20262;-91
2021/01/29 09:06:39;;;;;;;23.73;4.50;;;10.90;99.90;;;;;;4974463;28;20199;-91
2021/01/29 09:09:07;;;;;;;22.33;3.80;;;10.80;99.90;;;;;;4974647;28;20335;-91
2021/01/29 09:11:41;;;;;;;21.97;3.83;;;10.90;99.90;;;;;;4974791;28;20203;-91
2021/01/29 09:14:18;;;;;;;22.57;3.60;;;10.90;99.90;;;;;;4974492;28;20203;-92
2021/01/29 09:16:46;;;;;;;18.97;3.57;;;11.60;99.90;;;;;;4971676;28;20229;-83
2021/01/29 09:19:14;;;;;;;19.93;3.37;;;12.60;99.90;;;;;;4983266;28;20315;-82
2021/01/29 09:21:51;;;;;;;25.50;4.20;;;12.90;99.90;;;;;;5052996;28;20206;-83
2021/01/29 09:24:23;;;;;;;16.63;3.73;;;13.40;99.90;;;;;;4971757;28;20720;-82
2021/01/29 09:27:15;;;;;;;21.57;4.17;;;13.50;99.90;;;;;;4971606;28;20203;-83
2021/01/29 09:29:50;;;;;;;22.00;4.47;;;13.90;99.90;;;;;;4973844;28;20725;-93
2021/01/29 09:32:37;;;;;;;19.37;3.30;;;14.10;99.90;;;;;;4976426;28;20226;-94
2021/01/29 09:35:08;;;;;;;22.80;3.60;;;14.60;99.90;;;;;;4976299;28;20198;-84
2021/01/29 09:37:39;;;;;;;20.45;3.70;;;14.90;99.90;;;;;;4975577;28;20241;-94
2021/01/29 09:40:09;;;;;;;19.02;3.40;;;15.40;99.90;;;;;;4978236;28;20244;-93
2021/01/29 09:42:54;;;;;;;16.55;3.80;;;15.60;99.90;;;;;;4977691;28;20210;-93
2021/01/29 09:45:23;;;;;;;15.57;4.07;;;15.70;99.90;;;;;;4966168;28;20198;-83
2021/01/29 09:47:58;;;;;;;14.93;3.40;;;15.80;99.90;;;;;;4971766;28;20598;-84
2021/01/29 09:50:26;;;;;;;16.80;3.40;;;15.60;99.90;;;;;;4971470;28;20206;-84
2021/01/29 09:53:25;;;;;;;14.33;3.30;;;15.20;99.90;;;;;;4971152;28;20210;-84
2021/01/29 09:56:06;;;;;;;16.40;3.53;;;14.80;99.90;;;;;;4970755;28;20229;-84
2021/01/29 09:58:39;;;;;;;16.67;3.33;;;14.60;99.90;;;;;;4970496;28;20206;-83
2021/01/29 10:01:13;;;;;;;16.23;3.53;;;14.10;99.90;;;;;;4978845;28;20203;-83
2021/01/29 10:03:53;;;;;;;15.70;3.47;;;13.70;99.90;;;;;;4970741;28;20207;-83
2021/01/29 10:06:24;;;;;;;17.20;3.30;;;13.60;99.90;;;;;;4966324;28;20217;-84
2021/01/29 10:08:57;;;;;;;15.43;2.90;;;13.60;99.90;;;;;;4971152;28;20230;-83
2021/01/29 10:11:27;;;;;;;20.60;3.90;;;13.40;99.90;;;;;;4971506;28;20202;-83
2021/01/29 10:14:06;;;;;;;15.17;3.23;;;13.30;99.90;;;;;;4970293;28;20202;-84
2021/01/29 10:16:37;;;;;;;13.23;3.23;;;13.10;99.90;;;;;;4970546;28;20758;-84
2021/01/29 10:19:30;;;;;;;16.67;3.00;;;13.30;99.90;;;;;;4970768;28;20237;-83
2021/01/29 10:22:32;;;;;;;15.17;3.30;;;13.50;99.90;;;;;;4970363;28;20755;-84
2021/01/29 10:25:18;;;;;;;14.20;3.40;;;14.60;99.90;;;;;;5019824;28;20276;-84
2021/01/29 10:27:51;;;;;;;15.63;2.93;;;14.60;99.90;;;;;;5029294;28;20277;-84
2021/01/29 10:30:25;;;;;;;14.77;3.23;;;14.40;99.90;;;;;;4970739;28;20198;-84
2021/01/29 10:32:59;;;;;;;16.57;3.10;;;14.40;99.90;;;;;;4997765;28;20252;-84
2021/01/29 10:35:30;;;;;;;17.23;3.20;;;14.00;99.90;;;;;;5072241;28;20294;-84
2021/01/29 10:38:02;;;;;;;15.83;3.23;;;13.80;99.90;;;;;;5030407;28;20238;-84
2021/01/29 10:40:33;;;;;;;15.23;2.83;;;13.80;99.90;;;;;;4951942;28;20716;-83
2021/01/29 10:43:07;;;;;;;14.20;2.83;;;14.30;99.90;;;;;;4966540;28;20260;-83
2021/01/29 10:45:53;;;;;;;13.23;2.63;;;14.20;99.90;;;;;;4991060;28;20260;-84
2021/01/29 10:48:36;;;;;;;14.53;2.77;;;14.40;99.90;;;;;;4981918;28;20272;-84
2021/01/29 10:51:09;;;;;;;16.27;2.80;;;14.10;99.90;;;;;;4988961;28;20225;-83
2021/01/29 10:53:36;;;;;;;12.00;3.00;;;14.00;99.90;;;;;;4992327;28;20206;-84
2021/01/29 10:56:13;;;;;;;11.53;2.70;;;14.50;99.90;;;;;;4970787;28;20226;-84
2021/01/29 10:58:50;;;;;;;14.03;2.80;;;14.60;99.90;;;;;;4952285;28;20226;-83
2021/01/29 11:01:30;;;;;;;12.27;2.70;;;14.50;99.90;;;;;;4970035;28;20863;-84
2021/01/29 11:04:04;;;;;;;11.37;2.83;;;14.30;99.90;;;;;;4951051;29;20195;-84
2021/01/29 11:06:40;;;;;;;11.67;2.47;;;15.30;99.90;;;;;;4964377;28;20190;-83
2021/01/29 11:09:09;;;;;;;15.47;2.97;;;15.40;99.90;;;;;;4995910;28;20244;-84
2021/01/29 11:11:41;;;;;;;10.03;2.50;;;15.40;99.90;;;;;;4972386;28;20205;-82
2021/01/29 11:14:21;;;;;;;11.33;1.83;;;15.20;99.90;;;;;;4973981;28;20195;-83
2021/01/29 11:16:55;;;;;;;12.00;2.57;;;15.20;99.90;;;;;;4986626;28;20221;-83
2021/01/29 11:19:25;;;;;;;14.47;2.00;;;15.80;99.90;;;;;;4990030;28;20622;-83
2021/01/29 11:22:27;;;;;;;11.13;2.07;;;16.30;99.90;;;;;;4974526;28;20202;-83
2021/01/29 11:25:21;;;;;;;11.07;2.10;;;16.20;99.90;;;;;;4974892;28;20217;-83
2021/01/29 11:27:54;;;;;;;9.97;1.77;;;15.00;99.90;;;;;;4973737;28;20210;-83
2021/01/29 11:30:25;;;;;;;9.60;1.93;;;15.60;99.90;;;;;;4963797;28;20678;-83
2021/01/29 11:32:57;;;;;;;12.70;2.20;;;15.80;99.90;;;;;;4973318;28;20715;-82
2021/01/29 11:35:44;;;;;;;10.10;2.40;;;16.40;99.90;;;;;;4973150;28;20256;-82
2021/01/29 11:38:30;;;;;;;9.27;2.00;;;15.90;99.90;;;;;;4954112;29;20195;-83
2021/01/29 11:41:15;;;;;;;9.63;2.17;;;15.50;99.90;;;;;;4952928;28;20574;-84
2021/01/29 11:43:48;;;;;;;9.10;2.07;;;15.70;99.90;;;;;;4973150;28;20207;-85
2021/01/29 11:46:22;;;;;;;8.37;1.53;;;16.30;99.90;;;;;;4973539;28;20205;-84
2021/01/29 11:48:53;;;;;;;12.60;1.83;;;16.90;99.90;;;;;;4973050;28;20202;-84
2021/01/29 11:51:31;;;;;;;9.02;1.90;;;17.20;99.90;;;;;;4972290;28;20202;-83
2021/01/29 11:54:03;;;;;;;9.05;2.13;;;16.90;99.90;;;;;;4973586;28;20199;-83
2021/01/29 11:56:34;;;;;;;7.15;1.55;;;16.80;99.90;;;;;;4972064;28;20261;-82
2021/01/29 11:59:07;;;;;;;8.52;1.65;;;17.00;99.90;;;;;;4972796;28;20245;-82
2021/01/29 12:01:38;;;;;;;8.18;1.85;;;17.20;99.90;;;;;;4967647;28;20669;-82
2021/01/29 12:04:22;;;;;;;8.75;1.90;;;17.40;99.90;;;;;;4956918;28;20339;-83
2021/01/29 12:06:58;;;;;;;9.35;1.80;;;17.60;99.90;;;;;;4972475;28;20294;-83
2021/01/29 12:09:39;;;;;;;9.43;1.77;;;17.20;99.90;;;;;;4972464;28;20631;-83
2021/01/29 12:12:14;;;;;;;10.10;2.25;;;17.20;99.90;;;;;;4972072;28;20210;-84
2021/01/29 12:15:08;;;;;;;8.48;1.67;;;17.10;99.90;;;;;;4971723;28;20234;-84
2021/01/29 12:17:36;;;;;;;7.55;1.65;;;17.20;99.90;;;;;;4971090;28;20243;-85
2021/01/29 12:20:07;;;;;;;9.15;1.63;;;17.40;99.90;;;;;;5019643;28;20211;-86
2021/01/29 12:22:38;;;;;;;6.65;1.75;;;17.70;99.90;;;;;;5014645;28;20203;-85
2021/01/29 12:25:41;;;;;;;6.93;1.67;;;17.90;99.90;;;;;;4987052;28;20240;-84
2021/01/29 12:28:20;;;;;;;6.18;1.27;;;18.10;99.90;;;;;;4971711;28;20651;-83
2021/01/29 12:30:58;;;;;;;7.00;1.77;;;17.80;99.90;;;;;;4971751;28;20254;-84
2021/01/29 12:33:26;;;;;;;5.72;1.30;;;18.00;99.90;;;;;;4971961;28;20225;-85
2021/01/29 12:35:56;;;;;;;6.35;1.33;;;18.10;99.90;;;;;;4972082;28;20229;-83
2021/01/29 12:38:30;;;;;;;5.00;1.55;;;17.80;99.90;;;;;;4971943;28;20261;-84
2021/01/29 12:41:06;;;;;;;6.15;1.77;;;17.50;99.90;;;;;;4984355;28;20203;-85
2021/01/29 12:43:38;;;;;;;8.95;1.50;;;17.60;99.90;;;;;;4980453;28;20286;-85
2021/01/29 12:46:10;;;;;;;5.45;1.42;;;17.60;99.90;;;;;;4971135;28;20342;-84
2021/01/29 12:48:52;;;;;;;5.53;1.80;;;17.50;99.90;;;;;;5019248;28;20210;-85
2021/01/29 12:51:22;;;;;;;6.93;1.35;;;17.20;99.90;;;;;;4972082;28;20225;-84
2021/01/29 12:53:59;;;;;;;7.15;1.77;;;17.20;99.90;;;;;;4972226;28;20207;-85
2021/01/29 12:56:49;;;;;;;8.45;1.75;;;17.40;99.90;;;;;;4971380;28;20230;-85
2021/01/29 12:59:36;;;;;;;7.40;1.60;;;17.30;99.90;;;;;;4972106;28;20213;-84
2021/01/29 13:02:13;;;;;;;8.45;2.10;;;17.20;99.90;;;;;;4966587;28;20199;-84
2021/01/29 13:04:46;;;;;;;6.57;1.75;;;17.20;99.90;;;;;;4971952;28;20203;-85
2021/01/29 13:07:16;;;;;;;9.00;2.05;;;17.30;99.90;;;;;;4972071;28;20756;-85
2021/01/29 13:10:08;;;;;;;6.95;1.60;;;17.60;99.90;;;;;;4971096;28;20241;-84
2021/01/29 13:12:48;;;;;;;7.68;1.70;;;17.60;99.90;;;;;;4971306;28;20695;-85
2021/01/29 13:15:40;;;;;;;5.35;1.67;;;17.80;99.90;;;;;;4972208;28;20206;-85
2021/01/29 13:18:14;;;;;;;5.70;1.50;;;17.40;99.90;;;;;;4990803;28;20223;-83
2021/01/29 13:20:45;;;;;;;6.45;2.00;;;17.50;99.90;;;;;;4998562;28;20679;-82
2021/01/29 13:23:22;;;;;;;7.10;1.77;;;17.70;99.90;;;;;;4971055;28;20290;-83
2021/01/29 13:26:05;;;;;;;7.75;2.00;;;17.70;99.90;;;;;;4971733;28;20202;-83
2021/01/29 13:28:36;;;;;;;6.55;1.58;;;17.70;99.90;;;;;;5007822;28;20310;-83
2021/01/29 13:31:17;;;;;;;6.07;1.30;;;17.40;99.90;;;;;;5073230;28;20204;-83
2021/01/29 13:33:48;;;;;;;7.13;2.00;;;17.10;99.90;;;;;;5015741;28;20223;-83
2021/01/29 13:36:24;;;;;;;7.18;1.77;;;17.40;99.90;;;;;;5023556;28;20251;-83
2021/01/29 13:38:51;;;;;;;8.85;1.63;;;17.60;99.90;;;;;;4970362;28;20716;-82